sensor_id;sensor_type;location;lat;lon;timestamp;temperature;humidity
67005;HTU21D;53920;51.094;5.902;2023-02-03T00:01:11;10.74;71.16
67005;HTU21D;53920;51.094;5.902;2023-02-03T00:03:37;10.75;71.11
67005;HTU21D;53920;51.094;5.902;2023-02-03T00:06:03;10.75;71.14
67005;HTU21D;53920;51.094;5.902;2023-02-03T00:08:30;10.69;71.13
67005;HTU21D;53920;51.094;5.902;2023-02-03T00:10:58;10.69;71.16
67005;HTU21D;53920;51.094;5.902;2023-02-03T00:13:24;10.67;71.25
67005;HTU21D;53920;51.094;5.902;2023-02-03T00:15:51;10.68;71.35
67005;HTU21D;53920;51.094;5.902;2023-02-03T00:18:17;10.69;71.38
67005;HTU21D;53920;51.094;5.902;2023-02-03T00:20:43;10.65;71.38
67005;HTU21D;53920;51.094;5.902;2023-02-03T00:23:10;10.67;71.35
67005;HTU21D;53920;51.094;5.902;2023-02-03T00:25:38;10.69;71.32
67005;HTU21D;53920;51.094;5.902;2023-02-03T00:28:05;10.68;71.28
67005;HTU21D;53920;51.094;5.902;2023-02-03T00:30:35;10.70;71.28
67005;HTU21D;53920;51.094;5.902;2023-02-03T00:33:03;10.70;71.26
67005;HTU21D;53920;51.094;5.902;2023-02-03T00:35:29;10.69;71.32
67005;HTU21D;53920;51.094;5.902;2023-02-03T00:37:57;10.70;71.36
67005;HTU21D;53920;51.094;5.902;2023-02-03T00:40:25;10.66;71.49
67005;HTU21D;53920;51.094;5.902;2023-02-03T00:42:51;10.65;71.48
67005;HTU21D;53920;51.094;5.902;2023-02-03T00:45:18;10.66;71.49
67005;HTU21D;53920;51.094;5.902;2023-02-03T00:47:44;10.67;71.48
67005;HTU21D;53920;51.094;5.902;2023-02-03T00:50:10;10.65;71.55
67005;HTU21D;53920;51.094;5.902;2023-02-03T00:52:37;10.62;71.71
67005;HTU21D;53920;51.094;5.902;2023-02-03T00:55:04;10.62;71.64
67005;HTU21D;53920;51.094;5.902;2023-02-03T00:57:30;10.63;71.64
67005;HTU21D;53920;51.094;5.902;2023-02-03T00:59:56;10.65;71.58
67005;HTU21D;53920;51.094;5.902;2023-02-03T01:02:23;10.66;71.58
67005;HTU21D;53920;51.094;5.902;2023-02-03T01:04:50;10.65;71.63
67005;HTU21D;53920;51.094;5.902;2023-02-03T01:07:17;10.66;71.58
67005;HTU21D;53920;51.094;5.902;2023-02-03T01:09:44;10.66;71.61
67005;HTU21D;53920;51.094;5.902;2023-02-03T01:12:10;10.66;71.57
67005;HTU21D;53920;51.094;5.902;2023-02-03T01:14:35;10.65;71.58
67005;HTU21D;53920;51.094;5.902;2023-02-03T01:17:03;10.69;71.55
67005;HTU21D;53920;51.094;5.902;2023-02-03T01:19:29;10.65;71.58
67005;HTU21D;53920;51.094;5.902;2023-02-03T01:21:55;10.62;71.62
67005;HTU21D;53920;51.094;5.902;2023-02-03T01:24:21;10.63;71.68
67005;HTU21D;53920;51.094;5.902;2023-02-03T01:26:47;10.62;71.70
67005;HTU21D;53920;51.094;5.902;2023-02-03T01:29:13;10.64;71.64
67005;HTU21D;53920;51.094;5.902;2023-02-03T01:31:41;10.62;71.67
67005;HTU21D;53920;51.094;5.902;2023-02-03T01:34:11;10.62;71.71
67005;HTU21D;53920;51.094;5.902;2023-02-03T01:36:37;10.62;71.70
67005;HTU21D;53920;51.094;5.902;2023-02-03T01:39:04;10.60;71.73
67005;HTU21D;53920;51.094;5.902;2023-02-03T01:41:36;10.62;71.67
67005;HTU21D;53920;51.094;5.902;2023-02-03T01:47:03;10.62;71.70
67005;HTU21D;53920;51.094;5.902;2023-02-03T01:49:35;10.60;71.80
67005;HTU21D;53920;51.094;5.902;2023-02-03T01:52:03;10.65;71.68
67005;HTU21D;53920;51.094;5.902;2023-02-03T01:54:34;10.68;71.60
67005;HTU21D;53920;51.094;5.902;2023-02-03T01:57:28;10.66;71.53
67005;HTU21D;53920;51.094;5.902;2023-02-03T01:59:58;10.68;71.49
67005;HTU21D;53920;51.094;5.902;2023-02-03T02:02:28;10.69;71.45
67005;HTU21D;53920;51.094;5.902;2023-02-03T02:07:31;10.71;71.36
67005;HTU21D;53920;51.094;5.902;2023-02-03T02:09:59;10.72;71.32
67005;HTU21D;53920;51.094;5.902;2023-02-03T02:12:25;10.72;71.28
67005;HTU21D;53920;51.094;5.902;2023-02-03T02:14:51;10.72;71.26
67005;HTU21D;53920;51.094;5.902;2023-02-03T02:23:40;10.70;71.29
67005;HTU21D;53920;51.094;5.902;2023-02-03T02:26:32;10.71;71.10
67005;HTU21D;53920;51.094;5.902;2023-02-03T02:32:09;10.72;71.10
67005;HTU21D;53920;51.094;5.902;2023-02-03T02:40:41;10.67;71.16
67005;HTU21D;53920;51.094;5.902;2023-02-03T02:43:16;10.70;71.05
67005;HTU21D;53920;51.094;5.902;2023-02-03T02:45:55;10.69;71.05
67005;HTU21D;53920;51.094;5.902;2023-02-03T02:48:35;10.67;71.04
67005;HTU21D;53920;51.094;5.902;2023-02-03T02:51:06;10.70;70.87
67005;HTU21D;53920;51.094;5.902;2023-02-03T02:53:42;10.71;70.88
67005;HTU21D;53920;51.094;5.902;2023-02-03T02:56:13;10.71;70.79
67005;HTU21D;53920;51.094;5.902;2023-02-03T02:58:44;10.70;70.75
67005;HTU21D;53920;51.094;5.902;2023-02-03T03:01:12;10.71;70.74
67005;HTU21D;53920;51.094;5.902;2023-02-03T03:03:38;10.70;70.76
67005;HTU21D;53920;51.094;5.902;2023-02-03T03:06:23;10.73;70.63
67005;HTU21D;53920;51.094;5.902;2023-02-03T03:11:22;10.72;70.61
67005;HTU21D;53920;51.094;5.902;2023-02-03T03:13:53;10.73;70.60
67005;HTU21D;53920;51.094;5.902;2023-02-03T03:16:24;10.73;70.61
67005;HTU21D;53920;51.094;5.902;2023-02-03T03:18:59;10.71;70.74
67005;HTU21D;53920;51.094;5.902;2023-02-03T03:21:33;10.70;70.81
67005;HTU21D;53920;51.094;5.902;2023-02-03T03:24:07;10.75;70.71
67005;HTU21D;53920;51.094;5.902;2023-02-03T03:26:45;10.70;70.80
67005;HTU21D;53920;51.094;5.902;2023-02-03T03:31:39;10.73;70.71
67005;HTU21D;53920;51.094;5.902;2023-02-03T03:34:10;10.71;70.63
67005;HTU21D;53920;51.094;5.902;2023-02-03T03:37:13;10.72;70.64
67005;HTU21D;53920;51.094;5.902;2023-02-03T03:39:59;10.67;70.64
67005;HTU21D;53920;51.094;5.902;2023-02-03T03:43:39;10.69;70.61
67005;HTU21D;53920;51.094;5.902;2023-02-03T03:45:41;10.71;70.58
67005;HTU21D;53920;51.094;5.902;2023-02-03T03:48:20;10.67;70.56
67005;HTU21D;53920;51.094;5.902;2023-02-03T03:50:56;10.67;70.53
67005;HTU21D;53920;51.094;5.902;2023-02-03T03:53:26;10.69;70.46
67005;HTU21D;53920;51.094;5.902;2023-02-03T03:55:55;10.71;70.43
67005;HTU21D;53920;51.094;5.902;2023-02-03T03:58:30;10.69;70.37
67005;HTU21D;53920;51.094;5.902;2023-02-03T04:01:00;10.71;70.29
67005;HTU21D;53920;51.094;5.902;2023-02-03T04:03:32;10.69;70.39
67005;HTU21D;53920;51.094;5.902;2023-02-03T04:06:03;10.72;70.37
67005;HTU21D;53920;51.094;5.902;2023-02-03T04:08:29;10.69;70.38
67005;HTU21D;53920;51.094;5.902;2023-02-03T04:10:55;10.71;70.40
67005;HTU21D;53920;51.094;5.902;2023-02-03T04:13:21;10.71;70.40
67005;HTU21D;53920;51.094;5.902;2023-02-03T04:15:47;10.71;70.41
67005;HTU21D;53920;51.094;5.902;2023-02-03T04:18:14;10.73;70.35
67005;HTU21D;53920;51.094;5.902;2023-02-03T04:20:41;10.73;70.39
67005;HTU21D;53920;51.094;5.902;2023-02-03T04:23:08;10.74;70.34
67005;HTU21D;53920;51.094;5.902;2023-02-03T04:25:35;10.71;70.40
67005;HTU21D;53920;51.094;5.902;2023-02-03T04:28:01;10.70;70.41
67005;HTU21D;53920;51.094;5.902;2023-02-03T04:30:27;10.67;70.47
67005;HTU21D;53920;51.094;5.902;2023-02-03T04:32:57;10.68;70.38
67005;HTU21D;53920;51.094;5.902;2023-02-03T04:35:23;10.71;70.30
67005;HTU21D;53920;51.094;5.902;2023-02-03T04:37:49;10.73;70.29
67005;HTU21D;53920;51.094;5.902;2023-02-03T04:40:15;10.72;70.22
67005;HTU21D;53920;51.094;5.902;2023-02-03T04:42:42;10.73;70.10
67005;HTU21D;53920;51.094;5.902;2023-02-03T04:45:10;10.74;70.04
67005;HTU21D;53920;51.094;5.902;2023-02-03T04:47:37;10.74;69.99
67005;HTU21D;53920;51.094;5.902;2023-02-03T04:50:04;10.74;69.94
67005;HTU21D;53920;51.094;5.902;2023-02-03T04:52:30;10.75;69.86
67005;HTU21D;53920;51.094;5.902;2023-02-03T04:54:56;10.72;69.91
67005;HTU21D;53920;51.094;5.902;2023-02-03T04:57:23;10.74;69.80
67005;HTU21D;53920;51.094;5.902;2023-02-03T04:59:49;10.70;69.85
67005;HTU21D;53920;51.094;5.902;2023-02-03T05:02:15;10.69;69.70
67005;HTU21D;53920;51.094;5.902;2023-02-03T05:04:41;10.70;69.73
67005;HTU21D;53920;51.094;5.902;2023-02-03T05:07:07;10.71;69.67
67005;HTU21D;53920;51.094;5.902;2023-02-03T05:09:32;10.71;69.55
67005;HTU21D;53920;51.094;5.902;2023-02-03T05:11:59;10.73;69.51
67005;HTU21D;53920;51.094;5.902;2023-02-03T05:14:25;10.72;69.50
67005;HTU21D;53920;51.094;5.902;2023-02-03T05:16:50;10.73;69.45
67005;HTU21D;53920;51.094;5.902;2023-02-03T05:19:16;10.70;69.47
67005;HTU21D;53920;51.094;5.902;2023-02-03T05:21:42;10.70;69.42
67005;HTU21D;53920;51.094;5.902;2023-02-03T05:24:08;10.72;69.33
67005;HTU21D;53920;51.094;5.902;2023-02-03T05:26:35;10.72;69.31
67005;HTU21D;53920;51.094;5.902;2023-02-03T05:29:01;10.73;69.23
67005;HTU21D;53920;51.094;5.902;2023-02-03T05:31:27;10.73;69.10
67005;HTU21D;53920;51.094;5.902;2023-02-03T05:33:53;10.75;69.06
67005;HTU21D;53920;51.094;5.902;2023-02-03T05:36:19;10.75;69.06
67005;HTU21D;53920;51.094;5.902;2023-02-03T05:38:45;10.74;69.11
67005;HTU21D;53920;51.094;5.902;2023-02-03T05:41:12;10.74;69.08
67005;HTU21D;53920;51.094;5.902;2023-02-03T05:43:56;10.74;69.03
67005;HTU21D;53920;51.094;5.902;2023-02-03T05:46:22;10.75;68.99
67005;HTU21D;53920;51.094;5.902;2023-02-03T05:48:48;10.75;68.96
67005;HTU21D;53920;51.094;5.902;2023-02-03T05:51:14;10.73;68.94
67005;HTU21D;53920;51.094;5.902;2023-02-03T05:53:40;10.74;68.86
67005;HTU21D;53920;51.094;5.902;2023-02-03T05:56:06;10.72;68.84
67005;HTU21D;53920;51.094;5.902;2023-02-03T05:58:32;10.74;68.90
67005;HTU21D;53920;51.094;5.902;2023-02-03T06:00:58;10.72;68.92
67005;HTU21D;53920;51.094;5.902;2023-02-03T06:03:24;10.73;68.95
67005;HTU21D;53920;51.094;5.902;2023-02-03T06:05:50;10.75;68.96
67005;HTU21D;53920;51.094;5.902;2023-02-03T06:08:16;10.72;68.91
67005;HTU21D;53920;51.094;5.902;2023-02-03T06:10:42;10.74;68.87
67005;HTU21D;53920;51.094;5.902;2023-02-03T06:13:10;10.73;68.94
67005;HTU21D;53920;51.094;5.902;2023-02-03T06:15:36;10.71;68.95
67005;HTU21D;53920;51.094;5.902;2023-02-03T06:18:02;10.69;69.04
67005;HTU21D;53920;51.094;5.902;2023-02-03T06:20:28;10.73;68.89
67005;HTU21D;53920;51.094;5.902;2023-02-03T06:22:54;10.73;68.91
67005;HTU21D;53920;51.094;5.902;2023-02-03T06:25:20;10.71;68.93
67005;HTU21D;53920;51.094;5.902;2023-02-03T06:27:46;10.73;68.85
67005;HTU21D;53920;51.094;5.902;2023-02-03T06:30:13;10.75;68.85
67005;HTU21D;53920;51.094;5.902;2023-02-03T06:32:39;10.78;68.80
67005;HTU21D;53920;51.094;5.902;2023-02-03T06:35:05;10.78;68.62
67005;HTU21D;53920;51.094;5.902;2023-02-03T06:37:31;10.79;68.66
67005;HTU21D;53920;51.094;5.902;2023-02-03T06:39:57;10.78;68.69
67005;HTU21D;53920;51.094;5.902;2023-02-03T06:42:23;10.77;68.64
67005;HTU21D;53920;51.094;5.902;2023-02-03T06:44:49;10.78;68.65
67005;HTU21D;53920;51.094;5.902;2023-02-03T06:47:15;10.77;68.66
67005;HTU21D;53920;51.094;5.902;2023-02-03T06:49:41;10.77;68.49
67005;HTU21D;53920;51.094;5.902;2023-02-03T06:52:07;10.79;68.46
67005;HTU21D;53920;51.094;5.902;2023-02-03T06:54:33;10.78;68.36
67005;HTU21D;53920;51.094;5.902;2023-02-03T06:56:59;10.79;68.46
67005;HTU21D;53920;51.094;5.902;2023-02-03T06:59:24;10.82;68.37
67005;HTU21D;53920;51.094;5.902;2023-02-03T07:01:50;10.82;68.33
67005;HTU21D;53920;51.094;5.902;2023-02-03T07:04:18;10.79;68.39
67005;HTU21D;53920;51.094;5.902;2023-02-03T07:06:44;10.77;68.33
67005;HTU21D;53920;51.094;5.902;2023-02-03T07:09:09;10.80;68.32
67005;HTU21D;53920;51.094;5.902;2023-02-03T07:11:35;10.78;68.33
67005;HTU21D;53920;51.094;5.902;2023-02-03T07:14:01;10.73;68.30
67005;HTU21D;53920;51.094;5.902;2023-02-03T07:16:27;10.77;68.17
67005;HTU21D;53920;51.094;5.902;2023-02-03T07:18:54;10.75;68.28
67005;HTU21D;53920;51.094;5.902;2023-02-03T07:21:20;10.77;68.21
67005;HTU21D;53920;51.094;5.902;2023-02-03T07:23:47;10.81;68.17
67005;HTU21D;53920;51.094;5.902;2023-02-03T07:26:14;10.81;68.11
67005;HTU21D;53920;51.094;5.902;2023-02-03T07:28:40;10.92;67.84
67005;HTU21D;53920;51.094;5.902;2023-02-03T07:31:06;10.83;67.95
67005;HTU21D;53920;51.094;5.902;2023-02-03T07:33:36;10.84;67.96
67005;HTU21D;53920;51.094;5.902;2023-02-03T07:36:02;10.89;67.85
67005;HTU21D;53920;51.094;5.902;2023-02-03T07:38:29;10.92;67.78
67005;HTU21D;53920;51.094;5.902;2023-02-03T07:40:55;10.86;67.74
67005;HTU21D;53920;51.094;5.902;2023-02-03T07:43:22;10.90;67.54
67005;HTU21D;53920;51.094;5.902;2023-02-03T07:45:48;10.89;67.58
67005;HTU21D;53920;51.094;5.902;2023-02-03T07:48:14;10.89;67.55
67005;HTU21D;53920;51.094;5.902;2023-02-03T07:50:40;10.89;67.46
67005;HTU21D;53920;51.094;5.902;2023-02-03T07:53:07;10.90;67.38
67005;HTU21D;53920;51.094;5.902;2023-02-03T07:55:39;10.89;67.36
67005;HTU21D;53920;51.094;5.902;2023-02-03T07:58:05;10.86;67.46
67005;HTU21D;53920;51.094;5.902;2023-02-03T08:00:31;10.94;67.09
67005;HTU21D;53920;51.094;5.902;2023-02-03T08:02:58;10.96;67.06
67005;HTU21D;53920;51.094;5.902;2023-02-03T08:05:24;11.01;67.04
67005;HTU21D;53920;51.094;5.902;2023-02-03T08:07:50;11.03;67.01
67005;HTU21D;53920;51.094;5.902;2023-02-03T08:10:16;11.01;67.01
67005;HTU21D;53920;51.094;5.902;2023-02-03T08:12:42;11.01;66.96
67005;HTU21D;53920;51.094;5.902;2023-02-03T08:15:09;11.04;66.85
67005;HTU21D;53920;51.094;5.902;2023-02-03T08:17:36;11.05;66.85
67005;HTU21D;53920;51.094;5.902;2023-02-03T08:20:05;11.04;66.88
67005;HTU21D;53920;51.094;5.902;2023-02-03T08:22:32;11.08;66.82
67005;HTU21D;53920;51.094;5.902;2023-02-03T08:24:58;11.17;66.79
67005;HTU21D;53920;51.094;5.902;2023-02-03T08:27:24;11.26;66.42
67005;HTU21D;53920;51.094;5.902;2023-02-03T08:29:50;11.29;66.21
67005;HTU21D;53920;51.094;5.902;2023-02-03T08:32:18;11.27;66.17
67005;HTU21D;53920;51.094;5.902;2023-02-03T08:34:47;11.25;66.20
67005;HTU21D;53920;51.094;5.902;2023-02-03T08:37:15;11.16;66.41
67005;HTU21D;53920;51.094;5.902;2023-02-03T08:39:42;11.24;66.25
67005;HTU21D;53920;51.094;5.902;2023-02-03T08:42:08;11.24;66.33
67005;HTU21D;53920;51.094;5.902;2023-02-03T08:44:35;11.23;66.32
67005;HTU21D;53920;51.094;5.902;2023-02-03T08:47:01;11.23;66.32
67005;HTU21D;53920;51.094;5.902;2023-02-03T08:49:29;11.23;66.29
67005;HTU21D;53920;51.094;5.902;2023-02-03T08:51:56;11.25;66.47
67005;HTU21D;53920;51.094;5.902;2023-02-03T08:54:23;11.29;66.36
67005;HTU21D;53920;51.094;5.902;2023-02-03T08:56:50;11.28;66.25
67005;HTU21D;53920;51.094;5.902;2023-02-03T08:59:17;11.20;66.40
67005;HTU21D;53920;51.094;5.902;2023-02-03T09:01:43;11.17;66.56
67005;HTU21D;53920;51.094;5.902;2023-02-03T09:04:11;11.20;66.46
67005;HTU21D;53920;51.094;5.902;2023-02-03T09:06:38;11.27;66.36
67005;HTU21D;53920;51.094;5.902;2023-02-03T09:09:04;11.31;66.29
67005;HTU21D;53920;51.094;5.902;2023-02-03T09:11:30;11.32;66.30
67005;HTU21D;53920;51.094;5.902;2023-02-03T09:13:56;11.26;66.48
67005;HTU21D;53920;51.094;5.902;2023-02-03T09:16:24;11.28;66.43
67005;HTU21D;53920;51.094;5.902;2023-02-03T09:18:50;11.20;66.71
67005;HTU21D;53920;51.094;5.902;2023-02-03T09:21:17;11.23;66.79
67005;HTU21D;53920;51.094;5.902;2023-02-03T09:23:44;11.15;67.15
67005;HTU21D;53920;51.094;5.902;2023-02-03T09:26:12;11.18;67.28
67005;HTU21D;53920;51.094;5.902;2023-02-03T09:28:39;11.20;67.46
67005;HTU21D;53920;51.094;5.902;2023-02-03T09:31:07;11.24;67.52
67005;HTU21D;53920;51.094;5.902;2023-02-03T09:33:35;11.18;67.91
67005;HTU21D;53920;51.094;5.902;2023-02-03T09:36:01;11.11;68.38
67005;HTU21D;53920;51.094;5.902;2023-02-03T09:38:28;11.05;68.68
67005;HTU21D;53920;51.094;5.902;2023-02-03T09:41:00;10.99;69.23
67005;HTU21D;53920;51.094;5.902;2023-02-03T09:44:05;10.94;69.74
67005;HTU21D;53920;51.094;5.902;2023-02-03T09:46:43;10.89;70.16
67005;HTU21D;53920;51.094;5.902;2023-02-03T09:49:31;10.79;70.95
67005;HTU21D;53920;51.094;5.902;2023-02-03T09:52:09;10.71;71.62
67005;HTU21D;53920;51.094;5.902;2023-02-03T09:54:47;10.68;72.01
67005;HTU21D;53920;51.094;5.902;2023-02-03T09:57:22;10.68;72.28
67005;HTU21D;53920;51.094;5.902;2023-02-03T09:59:49;10.67;72.55
67005;HTU21D;53920;51.094;5.902;2023-02-03T10:10:12;10.70;73.15
67005;HTU21D;53920;51.094;5.902;2023-02-03T10:13:14;10.70;73.51
67005;HTU21D;53920;51.094;5.902;2023-02-03T10:18:52;10.57;74.45
67005;HTU21D;53920;51.094;5.902;2023-02-03T10:21:41;10.59;74.76
67005;HTU21D;53920;51.094;5.902;2023-02-03T10:24:14;10.59;74.94
67005;HTU21D;53920;51.094;5.902;2023-02-03T10:26:42;10.62;75.06
67005;HTU21D;53920;51.094;5.902;2023-02-03T10:29:36;10.67;75.12
67005;HTU21D;53920;51.094;5.902;2023-02-03T10:32:11;10.65;75.28
67005;HTU21D;53920;51.094;5.902;2023-02-03T10:34:38;10.67;75.21
67005;HTU21D;53920;51.094;5.902;2023-02-03T10:37:23;10.78;74.89
67005;HTU21D;53920;51.094;5.902;2023-02-03T10:39:51;10.79;74.65
67005;HTU21D;53920;51.094;5.902;2023-02-03T10:42:20;10.86;74.44
67005;HTU21D;53920;51.094;5.902;2023-02-03T10:45:13;11.01;73.99
67005;HTU21D;53920;51.094;5.902;2023-02-03T10:47:46;11.12;73.67
67005;HTU21D;53920;51.094;5.902;2023-02-03T10:50:22;11.23;73.33
67005;HTU21D;53920;51.094;5.902;2023-02-03T10:52:52;11.32;72.99
67005;HTU21D;53920;51.094;5.902;2023-02-03T10:55:38;11.43;72.62
67005;HTU21D;53920;51.094;5.902;2023-02-03T10:58:24;11.46;72.37
67005;HTU21D;53920;51.094;5.902;2023-02-03T11:01:19;11.48;72.16
67005;HTU21D;53920;51.094;5.902;2023-02-03T11:03:55;11.54;71.93
67005;HTU21D;53920;51.094;5.902;2023-02-03T11:06:22;11.60;71.76
67005;HTU21D;53920;51.094;5.902;2023-02-03T11:08:49;11.68;71.48
67005;HTU21D;53920;51.094;5.902;2023-02-03T11:11:30;11.70;71.17
67005;HTU21D;53920;51.094;5.902;2023-02-03T11:16:32;11.66;70.83
67005;HTU21D;53920;51.094;5.902;2023-02-03T11:19:02;11.69;70.65
67005;HTU21D;53920;51.094;5.902;2023-02-03T11:21:49;11.73;70.47
67005;HTU21D;53920;51.094;5.902;2023-02-03T11:24:37;11.84;70.10
67005;HTU21D;53920;51.094;5.902;2023-02-03T11:27:14;11.90;69.82
67005;HTU21D;53920;51.094;5.902;2023-02-03T11:29:50;11.89;69.47
67005;HTU21D;53920;51.094;5.902;2023-02-03T11:32:32;11.87;69.40
67005;HTU21D;53920;51.094;5.902;2023-02-03T11:35:04;11.85;69.29
67005;HTU21D;53920;51.094;5.902;2023-02-03T11:37:40;11.90;68.99
67005;HTU21D;53920;51.094;5.902;2023-02-03T11:42:38;11.85;68.92
67005;HTU21D;53920;51.094;5.902;2023-02-03T11:48:00;11.86;68.78
67005;HTU21D;53920;51.094;5.902;2023-02-03T11:56:33;11.83;68.79
67005;HTU21D;53920;51.094;5.902;2023-02-03T11:59:20;11.76;68.90
67005;HTU21D;53920;51.094;5.902;2023-02-03T12:05:26;11.85;68.79
67005;HTU21D;53920;51.094;5.902;2023-02-03T12:19:19;11.93;68.50
67005;HTU21D;53920;51.094;5.902;2023-02-03T12:30:36;11.93;68.56
67005;HTU21D;53920;51.094;5.902;2023-02-03T12:33:21;11.97;68.56
67005;HTU21D;53920;51.094;5.902;2023-02-03T12:35:57;12.02;68.42
67005;HTU21D;53920;51.094;5.902;2023-02-03T12:41:27;12.01;68.39
67005;HTU21D;53920;51.094;5.902;2023-02-03T12:44:03;12.02;68.41
67005;HTU21D;53920;51.094;5.902;2023-02-03T12:46:38;11.97;68.56
67005;HTU21D;53920;51.094;5.902;2023-02-03T12:51:52;11.98;68.60
67005;HTU21D;53920;51.094;5.902;2023-02-03T12:57:43;11.96;68.66
67005;HTU21D;53920;51.094;5.902;2023-02-03T13:03:06;11.92;68.80
67005;HTU21D;53920;51.094;5.902;2023-02-03T13:08:52;12.02;68.68
67005;HTU21D;53920;51.094;5.902;2023-02-03T13:11:46;12.03;68.62
67005;HTU21D;53920;51.094;5.902;2023-02-03T13:16:58;12.01;68.66
67005;HTU21D;53920;51.094;5.902;2023-02-03T13:19:39;12.02;68.65
67005;HTU21D;53920;51.094;5.902;2023-02-03T13:22:12;12.04;68.65
67005;HTU21D;53920;51.094;5.902;2023-02-03T13:24:47;11.97;68.78
67005;HTU21D;53920;51.094;5.902;2023-02-03T13:28:28;12.00;68.73
67005;HTU21D;53920;51.094;5.902;2023-02-03T13:33:16;11.96;68.85
67005;HTU21D;53920;51.094;5.902;2023-02-03T13:41:50;11.96;68.96
67005;HTU21D;53920;51.094;5.902;2023-02-03T13:44:25;11.92;69.04
67005;HTU21D;53920;51.094;5.902;2023-02-03T13:46:58;11.90;69.13
67005;HTU21D;53920;51.094;5.902;2023-02-03T13:49:29;11.99;68.97
67005;HTU21D;53920;51.094;5.902;2023-02-03T13:51:56;12.02;68.88
67005;HTU21D;53920;51.094;5.902;2023-02-03T13:54:37;12.02;68.88
67005;HTU21D;53920;51.094;5.902;2023-02-03T14:00:00;12.01;68.84
67005;HTU21D;53920;51.094;5.902;2023-02-03T14:02:44;11.99;68.87
67005;HTU21D;53920;51.094;5.902;2023-02-03T14:05:55;11.89;69.11
67005;HTU21D;53920;51.094;5.902;2023-02-03T14:16:41;11.96;68.99
67005;HTU21D;53920;51.094;5.902;2023-02-03T14:24:37;12.05;68.81
67005;HTU21D;53920;51.094;5.902;2023-02-03T14:27:16;12.17;68.53
67005;HTU21D;53920;51.094;5.902;2023-02-03T14:29:43;12.25;68.31
67005;HTU21D;53920;51.094;5.902;2023-02-03T14:32:12;12.23;68.33
67005;HTU21D;53920;51.094;5.902;2023-02-03T14:34:48;12.23;68.20
67005;HTU21D;53920;51.094;5.902;2023-02-03T14:37:22;12.18;68.36
67005;HTU21D;53920;51.094;5.902;2023-02-03T14:40:12;12.26;68.18
67005;HTU21D;53920;51.094;5.902;2023-02-03T14:51:04;12.31;68.03
67005;HTU21D;53920;51.094;5.902;2023-02-03T15:02:22;12.29;67.92
67005;HTU21D;53920;51.094;5.902;2023-02-03T15:07:45;12.23;68.09
67005;HTU21D;53920;51.094;5.902;2023-02-03T15:12:48;12.26;67.99
67005;HTU21D;53920;51.094;5.902;2023-02-03T15:17:42;12.32;67.89
67005;HTU21D;53920;51.094;5.902;2023-02-03T15:20:32;12.31;67.86
67005;HTU21D;53920;51.094;5.902;2023-02-03T15:22:59;12.30;67.85
67005;HTU21D;53920;51.094;5.902;2023-02-03T15:25:29;12.27;67.93
67005;HTU21D;53920;51.094;5.902;2023-02-03T15:28:18;12.16;68.22
67005;HTU21D;53920;51.094;5.902;2023-02-03T15:30:51;12.19;68.16
67005;HTU21D;53920;51.094;5.902;2023-02-03T15:33:21;12.13;68.34
67005;HTU21D;53920;51.094;5.902;2023-02-03T15:35:53;12.12;68.39
67005;HTU21D;53920;51.094;5.902;2023-02-03T15:38:30;12.10;68.44
67005;HTU21D;53920;51.094;5.902;2023-02-03T15:40:59;12.11;68.50
67005;HTU21D;53920;51.094;5.902;2023-02-03T15:43:36;12.07;68.61
67005;HTU21D;53920;51.094;5.902;2023-02-03T15:46:34;12.04;68.57
67005;HTU21D;53920;51.094;5.902;2023-02-03T15:49:15;12.02;68.71
67005;HTU21D;53920;51.094;5.902;2023-02-03T15:51:49;11.99;68.93
67005;HTU21D;53920;51.094;5.902;2023-02-03T15:54:25;11.94;68.99
67005;HTU21D;53920;51.094;5.902;2023-02-03T15:57:02;11.83;69.31
67005;HTU21D;53920;51.094;5.902;2023-02-03T15:59:34;11.81;69.49
67005;HTU21D;53920;51.094;5.902;2023-02-03T16:02:20;11.79;69.68
67005;HTU21D;53920;51.094;5.902;2023-02-03T16:04:49;11.78;69.76
67005;HTU21D;53920;51.094;5.902;2023-02-03T16:07:20;11.81;69.72
67005;HTU21D;53920;51.094;5.902;2023-02-03T16:09:46;11.84;69.63
67005;HTU21D;53920;51.094;5.902;2023-02-03T16:12:14;11.81;69.64
67005;HTU21D;53920;51.094;5.902;2023-02-03T16:14:42;11.78;69.59
67005;HTU21D;53920;51.094;5.902;2023-02-03T16:17:29;11.79;69.57
67005;HTU21D;53920;51.094;5.902;2023-02-03T16:22:45;11.76;69.55
67005;HTU21D;53920;51.094;5.902;2023-02-03T16:25:23;11.77;69.58
67005;HTU21D;53920;51.094;5.902;2023-02-03T16:33:48;11.76;69.64
67005;HTU21D;53920;51.094;5.902;2023-02-03T16:36:38;11.75;69.64
67005;HTU21D;53920;51.094;5.902;2023-02-03T16:39:25;11.79;69.55
67005;HTU21D;53920;51.094;5.902;2023-02-03T16:42:15;11.79;69.49
67005;HTU21D;53920;51.094;5.902;2023-02-03T16:45:02;11.78;69.50
67005;HTU21D;53920;51.094;5.902;2023-02-03T16:47:47;11.78;69.45
67005;HTU21D;53920;51.094;5.902;2023-02-03T16:50:33;11.76;69.49
67005;HTU21D;53920;51.094;5.902;2023-02-03T16:53:24;11.73;69.54
67005;HTU21D;53920;51.094;5.902;2023-02-03T16:55:53;11.74;69.51
67005;HTU21D;53920;51.094;5.902;2023-02-03T16:58:19;11.75;69.49
67005;HTU21D;53920;51.094;5.902;2023-02-03T17:00:47;11.76;69.45
67005;HTU21D;53920;51.094;5.902;2023-02-03T17:03:18;11.72;69.61
67005;HTU21D;53920;51.094;5.902;2023-02-03T17:05:45;11.71;69.61
67005;HTU21D;53920;51.094;5.902;2023-02-03T17:08:12;11.68;69.81
67005;HTU21D;53920;51.094;5.902;2023-02-03T17:10:41;11.73;69.77
67005;HTU21D;53920;51.094;5.902;2023-02-03T17:13:08;11.75;69.84
67005;HTU21D;53920;51.094;5.902;2023-02-03T17:15:42;11.77;69.96
67005;HTU21D;53920;51.094;5.902;2023-02-03T17:18:08;11.72;70.17
67005;HTU21D;53920;51.094;5.902;2023-02-03T17:20:36;11.76;70.16
67005;HTU21D;53920;51.094;5.902;2023-02-03T17:23:02;11.72;70.29
67005;HTU21D;53920;51.094;5.902;2023-02-03T17:25:31;11.69;70.52
67005;HTU21D;53920;51.094;5.902;2023-02-03T17:27:58;11.67;70.64
67005;HTU21D;53920;51.094;5.902;2023-02-03T17:30:24;11.70;70.61
67005;HTU21D;53920;51.094;5.902;2023-02-03T17:32:49;11.57;70.89
67005;HTU21D;53920;51.094;5.902;2023-02-03T17:35:15;11.54;71.03
67005;HTU21D;53920;51.094;5.902;2023-02-03T17:37:41;11.56;70.94
67005;HTU21D;53920;51.094;5.902;2023-02-03T17:40:09;11.58;71.03
67005;HTU21D;53920;51.094;5.902;2023-02-03T17:42:35;11.60;71.03
67005;HTU21D;53920;51.094;5.902;2023-02-03T17:45:01;11.55;71.09
67005;HTU21D;53920;51.094;5.902;2023-02-03T17:47:27;11.53;71.10
67005;HTU21D;53920;51.094;5.902;2023-02-03T17:49:53;11.51;71.11
67005;HTU21D;53920;51.094;5.902;2023-02-03T17:52:19;11.52;71.09
67005;HTU21D;53920;51.094;5.902;2023-02-03T17:54:46;11.53;71.09
67005;HTU21D;53920;51.094;5.902;2023-02-03T17:57:12;11.52;71.06
67005;HTU21D;53920;51.094;5.902;2023-02-03T17:59:39;11.53;71.10
67005;HTU21D;53920;51.094;5.902;2023-02-03T18:02:05;11.54;71.10
67005;HTU21D;53920;51.094;5.902;2023-02-03T18:04:31;11.54;71.19
67005;HTU21D;53920;51.094;5.902;2023-02-03T18:06:58;11.53;71.30
67005;HTU21D;53920;51.094;5.902;2023-02-03T18:09:23;11.51;71.45